createdAt,value
2018-01-10T00:01:53.776Z,4.00
2018-01-10T00:04:26.230Z,4.77
2018-01-10T00:06:58.687Z,4.63
2018-01-10T00:09:31.114Z,4.87
2018-01-10T00:12:05.085Z,4.10
2018-01-10T00:14:37.977Z,4.23
2018-01-10T00:17:10.401Z,5.00
2018-01-10T00:19:43.564Z,4.80
2018-01-10T00:22:16.393Z,5.77
2018-01-10T00:24:48.969Z,4.57
2018-01-10T00:27:22.632Z,4.20
2018-01-10T00:29:55.450Z,4.43
2018-01-10T00:32:28.141Z,4.20
2018-01-10T00:35:00.756Z,4.40
2018-01-10T00:37:33.224Z,4.37
2018-01-10T00:40:05.689Z,5.07
2018-01-10T00:42:39.108Z,4.67
2018-01-10T00:45:12.757Z,4.17
2018-01-10T00:47:45.391Z,4.40
2018-01-10T00:50:17.989Z,4.13
2018-01-10T00:52:50.797Z,4.37
2018-01-10T00:55:23.343Z,5.30
2018-01-10T00:57:55.748Z,5.23
2018-01-10T01:00:29.000Z,4.30
2018-01-10T01:03:02.516Z,4.40
2018-01-10T01:05:35.327Z,4.07
2018-01-10T01:08:07.724Z,3.80
2018-01-10T01:10:40.084Z,3.73
2018-01-10T01:13:12.764Z,4.10
2018-01-10T01:15:45.277Z,4.17
2018-01-10T01:18:17.846Z,3.87
2018-01-10T01:20:51.095Z,3.60
2018-01-10T01:23:23.991Z,3.87
2018-01-10T01:25:56.492Z,3.50
2018-01-10T01:28:29.704Z,3.77
2018-01-10T01:31:03.446Z,3.80
2018-01-10T01:33:37.160Z,3.60
2018-01-10T01:36:11.252Z,3.90
2018-01-10T01:38:44.749Z,3.80
2018-01-10T01:41:17.497Z,4.37
2018-01-10T01:43:50.699Z,3.73
2018-01-10T01:46:23.497Z,3.70
2018-01-10T01:48:55.832Z,4.20
2018-01-10T01:51:28.308Z,4.30
2018-01-10T01:54:00.789Z,4.07
2018-01-10T01:56:33.241Z,3.73
2018-01-10T01:59:05.650Z,4.37
2018-01-10T02:01:39.043Z,4.20
2018-01-10T02:04:11.515Z,4.93
2018-01-10T02:06:43.843Z,3.77
2018-01-10T02:09:17.081Z,3.50
2018-01-10T02:11:49.391Z,3.90
2018-01-10T02:14:21.826Z,3.67
2018-01-10T02:16:54.610Z,3.90
2018-01-10T02:19:27.642Z,3.87
2018-01-10T02:22:00.498Z,3.90
2018-01-10T02:24:33.597Z,3.60
2018-01-10T02:27:06.672Z,3.93
2018-01-10T02:29:39.140Z,3.47
2018-01-10T02:32:11.790Z,3.80
2018-01-10T02:34:44.231Z,3.83
2018-01-10T02:37:16.657Z,3.57
2018-01-10T02:39:49.108Z,4.00
2018-01-10T02:42:37.782Z,3.60
2018-01-10T02:45:11.085Z,3.77
2018-01-10T02:47:44.383Z,3.67
2018-01-10T02:50:16.737Z,3.17
2018-01-10T02:52:49.162Z,3.53
2018-01-10T02:55:22.160Z,4.00
2018-01-10T02:57:55.885Z,4.03
2018-01-10T03:00:28.602Z,3.77
2018-01-10T03:03:00.993Z,3.43
2018-01-10T03:05:33.382Z,3.13
2018-01-10T03:08:05.832Z,3.70
2018-01-10T03:10:38.213Z,3.77
2018-01-10T03:13:10.704Z,3.00
2018-01-10T03:15:43.139Z,3.40
2018-01-10T03:18:15.631Z,3.20
2018-01-10T03:20:48.106Z,3.47
2018-01-10T03:23:20.684Z,3.60
2018-01-10T03:25:53.820Z,3.43
2018-01-10T03:28:27.519Z,3.37
2018-01-10T03:31:00.444Z,3.30
2018-01-10T03:33:34.855Z,3.73
2018-01-10T03:36:07.972Z,3.20
2018-01-10T03:38:41.121Z,2.93
2018-01-10T03:41:13.681Z,3.17
2018-01-10T03:43:46.201Z,4.27
2018-01-10T03:46:18.889Z,2.80
2018-01-10T03:48:52.153Z,3.10
2018-01-10T03:51:25.460Z,3.27
2018-01-10T03:53:58.173Z,3.20
2018-01-10T03:56:31.307Z,3.87
2018-01-10T03:59:04.628Z,2.93
2018-01-10T04:01:37.346Z,3.57
2018-01-10T04:04:09.669Z,3.17
2018-01-10T04:06:42.197Z,3.07
2018-01-10T04:09:14.571Z,2.90
2018-01-10T04:11:46.924Z,3.07
2018-01-10T04:14:19.372Z,3.03
2018-01-10T04:16:51.800Z,2.83
2018-01-10T04:19:24.176Z,2.80
2018-01-10T04:21:57.289Z,2.33
2018-01-10T04:24:30.042Z,3.00
2018-01-10T04:27:02.510Z,3.07
2018-01-10T04:29:34.908Z,2.87
2018-01-10T04:32:07.276Z,3.10
2018-01-10T04:34:39.755Z,2.43
2018-01-10T04:37:12.137Z,3.00
2018-01-10T04:39:45.500Z,2.57
2018-01-10T04:42:19.382Z,3.53
2018-01-10T04:44:51.748Z,2.40
2018-01-10T04:47:24.368Z,2.77
2018-01-10T04:49:56.761Z,2.67
2018-01-10T04:52:29.376Z,2.80
2018-01-10T04:55:01.812Z,2.50
2018-01-10T04:57:34.363Z,2.80
2018-01-10T05:00:06.765Z,2.67
2018-01-10T05:02:39.235Z,2.53
2018-01-10T05:05:11.847Z,2.47
2018-01-10T05:07:44.355Z,3.13
2018-01-10T05:10:17.564Z,2.63
2018-01-10T05:12:50.552Z,2.80
2018-01-10T05:15:23.664Z,2.57
2018-01-10T05:17:56.126Z,2.00
2018-01-10T05:20:30.112Z,2.93
2018-01-10T05:23:03.484Z,2.53
2018-01-10T05:25:36.254Z,3.13
2018-01-10T05:28:08.700Z,2.50
2018-01-10T05:30:41.195Z,2.47
2018-01-10T05:33:13.577Z,2.33
2018-01-10T05:35:46.256Z,2.27
2018-01-10T05:38:18.900Z,2.40
2018-01-10T05:40:51.560Z,1.93
2018-01-10T05:43:23.981Z,2.40
2018-01-10T05:45:56.386Z,2.17
2018-01-10T05:48:29.644Z,2.00
2018-01-10T05:51:03.080Z,2.47
2018-01-10T05:53:36.412Z,2.60
2018-01-10T05:56:09.132Z,2.50
2018-01-10T05:58:42.261Z,2.47
2018-01-10T06:01:15.663Z,2.03
2018-01-10T06:03:48.210Z,1.97
2018-01-10T06:06:21.162Z,2.87
2018-01-10T06:08:54.906Z,2.40
2018-01-10T06:11:27.596Z,2.00
2018-01-10T06:14:00.828Z,2.23
2018-01-10T06:16:34.326Z,2.03
2018-01-10T06:19:07.060Z,4.57
2018-01-10T06:21:40.193Z,2.07
2018-01-10T06:24:13.211Z,3.30
2018-01-10T06:26:45.784Z,3.90
2018-01-10T06:29:18.251Z,3.63
2018-01-10T06:31:50.976Z,6.60
2018-01-10T06:34:24.295Z,3.83
2018-01-10T06:36:58.050Z,6.57
2018-01-10T06:39:30.971Z,3.90
2018-01-10T06:42:03.599Z,6.60
2018-01-10T06:44:36.956Z,4.00
2018-01-10T06:47:09.629Z,3.73
2018-01-10T06:49:42.088Z,3.70
2018-01-10T06:52:14.550Z,3.97
2018-01-10T06:54:47.184Z,4.20
2018-01-10T06:57:21.396Z,4.93
2018-01-10T06:59:54.624Z,3.17
2018-01-10T07:02:27.247Z,5.40
2018-01-10T07:04:59.755Z,3.70
2018-01-10T07:07:34.032Z,2.93
2018-01-10T07:10:07.952Z,5.00
2018-01-10T07:12:40.522Z,4.13
2018-01-10T07:15:12.977Z,3.10
2018-01-10T07:17:46.138Z,2.50
2018-01-10T07:20:19.240Z,2.83
2018-01-10T07:22:53.426Z,4.53
2018-01-10T07:25:26.369Z,3.10
2018-01-10T07:27:58.909Z,2.03
2018-01-10T07:30:33.608Z,2.37
2018-01-10T07:33:07.346Z,1.80
2018-01-10T07:35:40.037Z,2.17
2018-01-10T07:38:13.109Z,2.70
2018-01-10T07:40:45.722Z,1.93
2018-01-10T07:43:18.198Z,1.87
2018-01-10T07:45:50.968Z,5.40
2018-01-10T07:48:23.698Z,2.67
2018-01-10T07:50:56.236Z,2.70
2018-01-10T07:53:29.487Z,2.10
2018-01-10T07:56:02.324Z,3.03
2018-01-10T07:58:34.916Z,2.10
2018-01-10T08:01:08.351Z,2.20
2018-01-10T08:03:41.137Z,1.70
2018-01-10T08:06:13.660Z,2.37
2018-01-10T08:08:46.244Z,1.80
2018-01-10T08:11:19.872Z,2.87
2018-01-10T08:13:53.176Z,3.67
2018-01-10T08:16:25.605Z,2.20
2018-01-10T08:18:58.266Z,1.50
2018-01-10T08:21:32.360Z,2.90
2018-01-10T08:24:05.087Z,2.07
2018-01-10T08:26:37.981Z,2.00
2018-01-10T08:29:10.365Z,2.63
2018-01-10T08:31:42.818Z,1.70
2018-01-10T08:34:15.424Z,1.62
2018-01-10T08:36:48.850Z,1.80
2018-01-10T08:39:21.507Z,1.90
2018-01-10T08:41:54.841Z,2.57
2018-01-10T08:44:27.680Z,2.10
2018-01-10T08:47:00.164Z,1.90
2018-01-10T08:49:32.620Z,3.00
2018-01-10T08:53:51.479Z,1.50
2018-01-10T08:56:17.798Z,1.77
2018-01-10T08:58:44.067Z,1.90
2018-01-10T09:01:11.089Z,3.50
2018-01-10T09:03:37.380Z,2.50
2018-01-10T09:06:03.668Z,2.27
2018-01-10T09:08:29.951Z,1.63
2018-01-10T09:10:56.257Z,1.73
2018-01-10T09:13:23.288Z,1.60
2018-01-10T09:15:49.572Z,1.40
2018-01-10T09:18:15.879Z,3.20
2018-01-10T09:20:42.892Z,5.93
2018-01-10T09:23:09.169Z,1.87
2018-01-10T09:25:36.194Z,2.00
2018-01-10T09:28:02.479Z,1.53
2018-01-10T09:30:28.753Z,1.77
2018-01-10T09:32:55.032Z,1.40
2018-01-10T09:35:22.049Z,2.80
2018-01-10T09:37:48.356Z,3.50
2018-01-10T09:40:14.672Z,1.63
2018-01-10T09:42:40.972Z,1.53
2018-01-10T09:45:07.271Z,2.40
2018-01-10T09:47:33.559Z,3.53
2018-01-10T09:50:00.614Z,1.67
2018-01-10T09:52:27.635Z,1.80
2018-01-10T09:54:53.955Z,1.40
2018-01-10T09:57:20.244Z,2.53
2018-01-10T09:59:46.524Z,1.70
2018-01-10T10:02:12.817Z,2.13
2018-01-10T10:04:39.836Z,1.70
2018-01-10T10:07:06.114Z,1.70
2018-01-10T10:09:32.411Z,1.40
2018-01-10T10:11:58.667Z,2.13
2018-01-10T10:14:25.680Z,1.43
2018-01-10T10:16:51.980Z,1.40
2018-01-10T10:19:18.269Z,1.40
2018-01-10T10:21:44.541Z,2.13
2018-01-10T10:24:10.840Z,1.80
2018-01-10T10:26:37.117Z,1.90
2018-01-10T10:29:03.375Z,1.40
2018-01-10T10:31:29.657Z,1.77
2018-01-10T10:33:56.674Z,1.90
2018-01-10T10:36:23.012Z,1.47
2018-01-10T10:38:49.299Z,1.50
2018-01-10T10:41:15.569Z,1.57
2018-01-10T10:43:41.872Z,1.80
2018-01-10T10:46:08.157Z,1.60
2018-01-10T10:48:34.424Z,1.50
2018-01-10T10:51:01.432Z,1.70
2018-01-10T10:53:27.735Z,1.90
2018-01-10T10:55:54.001Z,1.50
2018-01-10T10:58:20.285Z,1.20
2018-01-10T11:00:47.328Z,1.73
2018-01-10T11:03:14.329Z,1.40
2018-01-10T11:05:40.652Z,1.80
2018-01-10T11:08:06.969Z,1.40
2018-01-10T11:10:33.235Z,1.27
2018-01-10T11:12:59.515Z,1.13
2018-01-10T11:15:26.561Z,1.50
2018-01-10T11:17:52.852Z,1.20
2018-01-10T11:20:19.137Z,1.67
2018-01-10T11:22:45.423Z,2.53
2018-01-10T11:25:11.701Z,1.67
2018-01-10T11:27:38.002Z,1.90
2018-01-10T11:30:04.317Z,1.80
2018-01-10T11:32:30.609Z,1.60
2018-01-10T11:34:57.642Z,2.07
2018-01-10T11:37:23.952Z,2.13
2018-01-10T11:39:50.221Z,1.90
2018-01-10T11:42:16.480Z,1.93
2018-01-10T11:44:43.516Z,1.50
2018-01-10T11:47:09.797Z,1.57
2018-01-10T11:49:36.070Z,1.30
2018-01-10T11:52:02.372Z,1.40
2018-01-10T11:54:28.650Z,1.97
2018-01-10T11:56:54.950Z,2.70
2018-01-10T11:59:21.250Z,1.87
2018-01-10T12:01:48.264Z,1.23
2018-01-10T12:04:14.573Z,1.50
2018-01-10T12:06:40.859Z,2.20
2018-01-10T12:09:07.896Z,1.30
2018-01-10T12:11:34.173Z,1.60
2018-01-10T12:14:00.473Z,1.53
2018-01-10T12:16:26.822Z,1.30
2018-01-10T12:18:53.846Z,1.10
2018-01-10T12:21:20.144Z,1.73
2018-01-10T12:23:46.429Z,2.20
2018-01-10T12:26:12.700Z,1.70
2018-01-10T12:28:38.984Z,1.50
2018-01-10T12:31:05.260Z,2.40
2018-01-10T12:33:32.288Z,2.07
2018-01-10T12:35:58.570Z,1.50
2018-01-10T12:38:24.860Z,1.63
2018-01-10T12:40:51.145Z,1.80
2018-01-10T12:43:17.425Z,1.17
2018-01-10T12:45:43.712Z,1.53
2018-01-10T12:48:10.029Z,1.67
2018-01-10T12:50:36.313Z,1.63
2018-01-10T12:53:02.611Z,2.03
2018-01-10T12:55:28.896Z,1.70
2018-01-10T12:57:55.157Z,1.77
2018-01-10T13:00:22.192Z,1.80
2018-01-10T13:02:48.476Z,1.50
2018-01-10T13:05:14.739Z,1.70
2018-01-10T13:07:41.025Z,2.87
2018-01-10T13:10:07.324Z,1.53
2018-01-10T13:12:33.623Z,3.40
2018-01-10T13:14:59.895Z,1.80
2018-01-10T13:17:26.182Z,1.67
2018-01-10T13:19:52.497Z,1.73
2018-01-10T13:22:19.538Z,1.73
2018-01-10T13:24:46.564Z,1.60
2018-01-10T13:27:12.856Z,1.63
2018-01-10T13:29:39.145Z,2.53
2018-01-10T13:32:05.426Z,1.67
2018-01-10T13:34:31.704Z,1.33
2018-01-10T13:36:57.985Z,1.50
2018-01-10T13:39:24.296Z,1.30
2018-01-10T13:41:50.605Z,1.50
2018-01-10T13:44:16.885Z,1.47
2018-01-10T13:46:43.912Z,1.33
2018-01-10T13:49:10.201Z,1.33
2018-01-10T13:51:36.476Z,1.60
2018-01-10T13:54:02.766Z,1.47
2018-01-10T13:56:29.052Z,2.70
2018-01-10T13:58:55.343Z,1.43
2018-01-10T14:01:21.622Z,2.10
2018-01-10T14:03:47.926Z,1.50
2018-01-10T14:06:14.205Z,1.60
2018-01-10T14:08:41.220Z,1.83
2018-01-10T14:11:07.516Z,1.80
2018-01-10T14:13:33.791Z,1.93
2018-01-10T14:16:00.059Z,1.20
2018-01-10T14:18:26.367Z,1.53
2018-01-10T14:20:52.672Z,3.20
2018-01-10T14:23:18.968Z,1.40
2018-01-10T14:25:46.065Z,2.53
2018-01-10T14:28:12.350Z,1.30
2018-01-10T14:30:38.628Z,1.30
2018-01-10T14:33:04.950Z,1.37
2018-01-10T14:35:31.984Z,1.47
2018-01-10T14:37:58.274Z,1.40
2018-01-10T14:40:24.575Z,1.30
2018-01-10T14:42:50.869Z,1.20
2018-01-10T14:45:17.154Z,1.37
2018-01-10T14:47:43.480Z,1.30
2018-01-10T14:50:10.143Z,1.20
2018-01-10T14:52:36.423Z,1.03
2018-01-10T14:55:03.091Z,1.00
2018-01-10T14:57:30.136Z,1.30
2018-01-10T14:59:56.424Z,1.37
2018-01-10T15:02:22.760Z,1.53
2018-01-10T15:04:49.032Z,1.10
2018-01-10T15:07:15.420Z,1.77
2018-01-10T15:09:41.727Z,1.30
2018-01-10T15:12:08.744Z,1.77
2018-01-10T15:14:35.092Z,1.70
2018-01-10T15:17:01.420Z,1.37
2018-01-10T15:19:28.053Z,1.27
2018-01-10T15:21:54.344Z,1.50
2018-01-10T15:24:20.654Z,1.20
2018-01-10T15:26:46.939Z,1.27
2018-01-10T15:29:13.245Z,1.60
2018-01-10T15:31:39.566Z,1.00
2018-01-10T15:34:06.617Z,1.43
2018-01-10T15:36:33.667Z,2.17
2018-01-10T15:39:00.754Z,1.43
2018-01-10T15:41:27.069Z,1.33
2018-01-10T15:43:54.105Z,1.20
2018-01-10T15:46:20.422Z,1.30
2018-01-10T15:48:46.737Z,1.30
2018-01-10T15:51:13.053Z,1.90
2018-01-10T15:53:39.390Z,1.77
2018-01-10T15:56:05.745Z,1.53
2018-01-10T15:58:32.077Z,1.60
2018-01-10T16:00:58.373Z,2.62
2018-01-10T16:03:25.419Z,1.53
2018-01-10T16:05:52.458Z,0.93
2018-01-10T16:08:18.768Z,1.30
2018-01-10T16:10:45.062Z,1.20
2018-01-10T16:13:11.360Z,2.53
2018-01-10T16:15:37.674Z,1.23
2018-01-10T16:18:03.957Z,1.20
2018-01-10T16:20:30.975Z,1.53
2018-01-10T16:22:57.284Z,1.13
2018-01-10T16:25:23.593Z,1.23
2018-01-10T16:27:49.886Z,2.90
2018-01-10T16:30:16.187Z,1.40
2018-01-10T16:32:42.552Z,1.90
2018-01-10T16:35:08.892Z,2.37
2018-01-10T16:37:35.194Z,1.40
2018-01-10T16:40:01.938Z,0.90
2018-01-10T16:42:28.259Z,1.37
2018-01-10T16:44:54.596Z,2.40
2018-01-10T16:47:20.909Z,1.20
2018-01-10T16:49:47.952Z,1.23
2018-01-10T16:52:14.990Z,1.67
2018-01-10T16:54:42.024Z,1.90
2018-01-10T16:57:08.313Z,1.33
2018-01-10T16:59:35.355Z,1.27
2018-01-10T17:02:02.412Z,1.23
2018-01-10T17:04:29.440Z,1.40
2018-01-10T17:06:56.501Z,1.40
2018-01-10T17:09:22.811Z,1.93
2018-01-10T17:11:49.116Z,2.37
2018-01-10T17:14:15.406Z,1.33
2018-01-10T17:16:42.473Z,1.47
2018-01-10T17:19:09.534Z,1.83
2018-01-10T17:21:36.592Z,1.93
2018-01-10T17:24:02.887Z,4.10
2018-01-10T17:26:29.198Z,2.70
2018-01-10T17:28:55.497Z,1.60
2018-01-10T17:31:21.884Z,1.47
2018-01-10T17:33:48.202Z,1.37
2018-01-10T17:36:14.499Z,2.30
2018-01-10T17:38:41.539Z,1.70
2018-01-10T17:41:08.591Z,3.77
2018-01-10T17:43:35.632Z,1.40
2018-01-10T17:46:01.945Z,1.30
2018-01-10T17:48:28.904Z,3.70
2018-01-10T17:50:56.190Z,1.80
2018-01-10T17:53:23.242Z,1.70
2018-01-10T17:55:50.325Z,2.37
2018-01-10T17:58:16.638Z,1.60
2018-01-10T18:00:43.738Z,1.67
2018-01-10T18:03:10.078Z,1.53
2018-01-10T18:05:36.458Z,2.20
2018-01-10T18:08:03.505Z,1.33
2018-01-10T18:10:29.822Z,1.47
2018-01-10T18:12:56.135Z,1.50
2018-01-10T18:15:22.413Z,2.30
2018-01-10T18:17:48.706Z,1.67
2018-01-10T18:20:15.089Z,1.67
2018-01-10T18:22:41.359Z,1.60
2018-01-10T18:25:07.659Z,2.80
2018-01-10T18:27:33.938Z,3.00
2018-01-10T18:30:00.287Z,2.10
2018-01-10T18:32:26.623Z,2.50
2018-01-10T18:34:52.905Z,2.07
2018-01-10T18:37:19.940Z,3.07
2018-01-10T18:39:46.211Z,1.80
2018-01-10T18:42:12.548Z,2.03
2018-01-10T18:44:38.830Z,2.23
2018-01-10T18:47:05.210Z,1.67
2018-01-10T18:49:32.276Z,2.30
2018-01-10T18:51:58.560Z,1.70
2018-01-10T18:54:24.912Z,2.33
2018-01-10T18:56:51.981Z,1.80
2018-01-10T18:59:19.071Z,1.57
2018-01-10T19:01:45.372Z,1.60
2018-01-10T19:04:12.478Z,2.10
2018-01-10T19:06:38.805Z,1.60
2018-01-10T19:09:05.110Z,1.83
2018-01-10T19:11:31.421Z,1.43
2018-01-10T19:14:23.164Z,1.60
2018-01-10T19:16:49.445Z,2.17
2018-01-10T19:19:15.744Z,1.50
2018-01-10T19:21:42.027Z,2.70
2018-01-10T19:24:08.427Z,1.90
2018-01-10T19:26:34.799Z,1.60
2018-01-10T19:29:01.494Z,1.97
2018-01-10T19:31:27.792Z,1.87
2018-01-10T19:33:54.078Z,1.50
2018-01-10T19:36:20.369Z,2.50
2018-01-10T19:38:46.672Z,1.70
2018-01-10T19:41:12.964Z,2.17
2018-01-10T19:43:40.004Z,1.97
2018-01-10T19:46:07.060Z,1.87
2018-01-10T19:48:34.088Z,1.90
2018-01-10T19:51:00.439Z,2.23
2018-01-10T19:53:26.758Z,1.83
2018-01-10T19:55:53.664Z,2.33
2018-01-10T19:58:24.864Z,2.00
2018-01-10T20:00:51.168Z,1.83
2018-01-10T20:03:17.511Z,2.27
2018-01-10T20:05:43.847Z,2.17
2018-01-10T20:08:10.122Z,2.60
2018-01-10T20:10:37.153Z,1.83
2018-01-10T20:13:03.453Z,2.20
2018-01-10T20:15:29.757Z,2.30
2018-01-10T20:17:56.821Z,2.50
2018-01-10T20:20:23.142Z,2.30
2018-01-10T20:22:50.171Z,2.80
2018-01-10T20:25:16.464Z,2.30
2018-01-10T20:27:42.796Z,2.70
2018-01-10T20:30:09.105Z,2.30
2018-01-10T20:32:36.831Z,2.70
2018-01-10T20:35:03.130Z,2.40
2018-01-10T20:37:29.443Z,2.67
2018-01-10T20:39:56.685Z,2.30
2018-01-10T20:42:23.705Z,2.37
2018-01-10T20:44:57.059Z,2.27
2018-01-10T20:47:23.342Z,2.40
2018-01-10T20:49:49.612Z,2.90
2018-01-10T20:52:16.654Z,2.13
2018-01-10T20:54:42.933Z,2.70
2018-01-10T20:57:09.233Z,2.20
2018-01-10T20:59:36.252Z,2.50
2018-01-10T21:02:02.558Z,2.40
2018-01-10T21:04:28.853Z,3.13
2018-01-10T21:06:55.888Z,2.70
2018-01-10T21:09:22.192Z,2.33
2018-01-10T21:11:48.473Z,2.53
2018-01-10T21:14:15.537Z,2.30
2018-01-10T21:16:42.552Z,2.00
2018-01-10T21:19:08.892Z,2.57
2018-01-10T21:21:35.217Z,3.00
2018-01-10T21:24:01.505Z,3.00
2018-01-10T21:26:27.796Z,2.73
2018-01-10T21:28:54.112Z,2.80
2018-01-10T21:31:20.396Z,3.00
2018-01-10T21:33:47.444Z,2.47
2018-01-10T21:36:14.490Z,2.63
2018-01-10T21:38:40.775Z,2.67
2018-01-10T21:41:07.076Z,2.90
2018-01-10T21:43:34.114Z,2.70
2018-01-10T21:46:00.420Z,2.43
2018-01-10T21:48:26.738Z,2.70
2018-01-10T21:50:53.062Z,2.70
2018-01-10T21:53:19.356Z,2.90
2018-01-10T21:55:45.673Z,2.50
2018-01-10T21:58:12.036Z,4.30
2018-01-10T22:00:39.196Z,3.70
2018-01-10T22:03:05.530Z,2.53
2018-01-10T22:05:32.553Z,2.43
2018-01-10T22:07:58.865Z,2.40
2018-01-10T22:10:25.188Z,2.20
2018-01-10T22:12:51.498Z,2.00
2018-01-10T22:15:18.556Z,2.10
2018-01-10T22:17:44.911Z,2.57
2018-01-10T22:20:11.190Z,2.20
2018-01-10T22:22:37.510Z,2.40
2018-01-10T22:25:03.770Z,2.20
2018-01-10T22:27:30.097Z,2.63
2018-01-10T22:29:56.388Z,2.23
2018-01-10T22:32:22.678Z,2.30
2018-01-10T22:34:49.032Z,2.00
2018-01-10T22:37:16.078Z,2.23
2018-01-10T22:39:42.366Z,2.17
2018-01-10T22:42:08.667Z,2.53
2018-01-10T22:44:34.940Z,2.50
2018-01-10T22:47:01.729Z,2.57
2018-01-10T22:49:28.018Z,2.00
2018-01-10T22:51:54.318Z,2.47
2018-01-10T22:54:20.637Z,2.20
2018-01-10T22:56:47.700Z,2.10
2018-01-10T22:59:14.786Z,2.13
2018-01-10T23:01:41.064Z,2.13
2018-01-10T23:04:07.764Z,2.40
2018-01-10T23:06:34.044Z,2.50
2018-01-10T23:09:00.361Z,2.17
2018-01-10T23:11:26.661Z,1.80
2018-01-10T23:13:52.942Z,2.50
2018-01-10T23:16:19.237Z,2.30
2018-01-10T23:18:45.521Z,2.40
2018-01-10T23:21:11.812Z,2.10
2018-01-10T23:23:38.123Z,2.50
2018-01-10T23:26:05.149Z,2.00
2018-01-10T23:28:31.696Z,1.90
2018-01-10T23:30:58.007Z,2.00
2018-01-10T23:33:24.292Z,2.40
2018-01-10T23:35:50.635Z,1.90
2018-01-10T23:38:16.960Z,1.90
2018-01-10T23:40:43.990Z,1.87
2018-01-10T23:43:11.041Z,1.83
2018-01-10T23:45:37.328Z,1.87
2018-01-10T23:48:03.652Z,2.27
2018-01-10T23:50:29.948Z,2.47
2018-01-10T23:52:56.245Z,2.40
2018-01-10T23:55:22.520Z,2.13
2018-01-10T23:57:48.792Z,2.13
